sensor_id;sensor_type;location;lat;lon;timestamp;P1;durP1;ratioP1;P2;durP2;ratioP2
70183;SDS011;57554;51.546;6.776;2023-05-07T00:00:10;16.42;;;11.93;;
70183;SDS011;57554;51.546;6.776;2023-05-07T00:02:40;21.65;;;13.57;;
70183;SDS011;57554;51.546;6.776;2023-05-07T00:05:11;17.70;;;12.75;;
70183;SDS011;57554;51.546;6.776;2023-05-07T00:07:40;17.42;;;11.48;;
70183;SDS011;57554;51.546;6.776;2023-05-07T00:10:09;19.02;;;12.45;;
70183;SDS011;57554;51.546;6.776;2023-05-07T00:12:43;22.00;;;14.77;;
70183;SDS011;57554;51.546;6.776;2023-05-07T00:15:09;19.27;;;14.13;;
70183;SDS011;57554;51.546;6.776;2023-05-07T00:17:44;19.42;;;13.93;;
70183;SDS011;57554;51.546;6.776;2023-05-07T00:20:10;16.33;;;12.52;;
70183;SDS011;57554;51.546;6.776;2023-05-07T00:22:47;18.52;;;14.27;;
70183;SDS011;57554;51.546;6.776;2023-05-07T00:25:13;19.88;;;14.30;;
70183;SDS011;57554;51.546;6.776;2023-05-07T00:27:44;17.60;;;13.25;;
70183;SDS011;57554;51.546;6.776;2023-05-07T00:30:13;18.35;;;13.60;;
70183;SDS011;57554;51.546;6.776;2023-05-07T00:32:41;19.88;;;14.15;;
70183;SDS011;57554;51.546;6.776;2023-05-07T00:35:16;18.02;;;13.60;;
70183;SDS011;57554;51.546;6.776;2023-05-07T00:37:42;17.52;;;12.25;;
70183;SDS011;57554;51.546;6.776;2023-05-07T00:40:11;21.85;;;15.38;;
70183;SDS011;57554;51.546;6.776;2023-05-07T00:42:46;19.90;;;14.68;;
70183;SDS011;57554;51.546;6.776;2023-05-07T00:45:46;17.80;;;13.18;;
70183;SDS011;57554;51.546;6.776;2023-05-07T00:50:41;20.70;;;13.45;;
70183;SDS011;57554;51.546;6.776;2023-05-07T00:53:14;19.45;;;13.65;;
70183;SDS011;57554;51.546;6.776;2023-05-07T00:55:45;20.52;;;14.10;;
70183;SDS011;57554;51.546;6.776;2023-05-07T00:58:11;20.13;;;13.50;;
70183;SDS011;57554;51.546;6.776;2023-05-07T01:00:40;21.27;;;14.00;;
70183;SDS011;57554;51.546;6.776;2023-05-07T01:03:06;21.60;;;15.38;;
70183;SDS011;57554;51.546;6.776;2023-05-07T01:05:35;21.13;;;14.10;;
70183;SDS011;57554;51.546;6.776;2023-05-07T01:08:01;20.55;;;14.63;;
70183;SDS011;57554;51.546;6.776;2023-05-07T01:10:30;19.25;;;13.63;;
70183;SDS011;57554;51.546;6.776;2023-05-07T01:12:57;19.42;;;14.45;;
70183;SDS011;57554;51.546;6.776;2023-05-07T01:15:31;17.42;;;12.15;;
70183;SDS011;57554;51.546;6.776;2023-05-07T01:17:59;18.85;;;13.23;;
70183;SDS011;57554;51.546;6.776;2023-05-07T01:20:33;21.98;;;15.38;;
70183;SDS011;57554;51.546;6.776;2023-05-07T01:23:11;19.40;;;14.07;;
70183;SDS011;57554;51.546;6.776;2023-05-07T01:25:40;18.05;;;13.63;;
70183;SDS011;57554;51.546;6.776;2023-05-07T01:28:06;22.40;;;15.07;;
70183;SDS011;57554;51.546;6.776;2023-05-07T01:30:35;21.90;;;16.15;;
70183;SDS011;57554;51.546;6.776;2023-05-07T01:33:09;20.48;;;15.38;;
70183;SDS011;57554;51.546;6.776;2023-05-07T01:35:40;21.08;;;15.07;;
70183;SDS011;57554;51.546;6.776;2023-05-07T01:38:09;20.25;;;15.18;;
70183;SDS011;57554;51.546;6.776;2023-05-07T01:40:44;21.55;;;15.40;;
70183;SDS011;57554;51.546;6.776;2023-05-07T01:43:12;22.00;;;14.90;;
70183;SDS011;57554;51.546;6.776;2023-05-07T01:45:41;22.50;;;16.33;;
70183;SDS011;57554;51.546;6.776;2023-05-07T01:48:11;24.42;;;15.43;;
70183;SDS011;57554;51.546;6.776;2023-05-07T01:50:44;20.30;;;14.93;;
70183;SDS011;57554;51.546;6.776;2023-05-07T01:53:13;24.05;;;16.40;;
70183;SDS011;57554;51.546;6.776;2023-05-07T01:55:39;21.60;;;15.43;;
70183;SDS011;57554;51.546;6.776;2023-05-07T01:58:05;25.08;;;16.23;;
70183;SDS011;57554;51.546;6.776;2023-05-07T02:00:33;22.73;;;15.93;;
70183;SDS011;57554;51.546;6.776;2023-05-07T02:03:07;20.85;;;16.00;;
70183;SDS011;57554;51.546;6.776;2023-05-07T02:05:42;20.85;;;14.73;;
70183;SDS011;57554;51.546;6.776;2023-05-07T02:08:11;23.52;;;15.57;;
70183;SDS011;57554;51.546;6.776;2023-05-07T02:10:37;20.25;;;14.20;;
70183;SDS011;57554;51.546;6.776;2023-05-07T02:13:03;25.42;;;17.65;;
70183;SDS011;57554;51.546;6.776;2023-05-07T02:15:38;21.85;;;14.88;;
70183;SDS011;57554;51.546;6.776;2023-05-07T02:18:11;22.00;;;16.17;;
70183;SDS011;57554;51.546;6.776;2023-05-07T02:20:39;20.30;;;15.57;;
70183;SDS011;57554;51.546;6.776;2023-05-07T02:23:10;24.45;;;16.33;;
70183;SDS011;57554;51.546;6.776;2023-05-07T02:25:38;23.90;;;17.13;;
70183;SDS011;57554;51.546;6.776;2023-05-07T02:28:10;24.80;;;17.30;;
70183;SDS011;57554;51.546;6.776;2023-05-07T02:33:06;27.52;;;18.52;;
70183;SDS011;57554;51.546;6.776;2023-05-07T02:35:37;27.08;;;19.23;;
70183;SDS011;57554;51.546;6.776;2023-05-07T02:38:05;28.75;;;20.40;;
70183;SDS011;57554;51.546;6.776;2023-05-07T02:40:35;23.83;;;16.73;;
70183;SDS011;57554;51.546;6.776;2023-05-07T02:43:05;24.63;;;17.95;;
70183;SDS011;57554;51.546;6.776;2023-05-07T02:45:31;27.08;;;17.67;;
70183;SDS011;57554;51.546;6.776;2023-05-07T02:47:58;25.48;;;18.42;;
70183;SDS011;57554;51.546;6.776;2023-05-07T02:50:24;27.73;;;19.00;;
70183;SDS011;57554;51.546;6.776;2023-05-07T02:52:50;27.60;;;19.00;;
70183;SDS011;57554;51.546;6.776;2023-05-07T02:55:18;28.52;;;20.52;;
70183;SDS011;57554;51.546;6.776;2023-05-07T02:57:49;27.77;;;19.00;;
70183;SDS011;57554;51.546;6.776;2023-05-07T03:00:16;27.38;;;19.63;;
70183;SDS011;57554;51.546;6.776;2023-05-07T03:02:45;26.02;;;18.63;;
70183;SDS011;57554;51.546;6.776;2023-05-07T03:05:24;29.50;;;20.35;;
70183;SDS011;57554;51.546;6.776;2023-05-07T03:07:50;29.92;;;20.60;;
70183;SDS011;57554;51.546;6.776;2023-05-07T03:10:31;32.28;;;20.35;;
70183;SDS011;57554;51.546;6.776;2023-05-07T03:13:07;26.50;;;19.95;;
70183;SDS011;57554;51.546;6.776;2023-05-07T03:15:33;32.50;;;21.40;;
70183;SDS011;57554;51.546;6.776;2023-05-07T03:18:04;29.38;;;19.98;;
70183;SDS011;57554;51.546;6.776;2023-05-07T03:20:32;28.25;;;20.35;;
70183;SDS011;57554;51.546;6.776;2023-05-07T03:23:03;30.33;;;21.70;;
70183;SDS011;57554;51.546;6.776;2023-05-07T03:25:31;29.90;;;20.40;;
70183;SDS011;57554;51.546;6.776;2023-05-07T03:28:00;31.27;;;22.13;;
70183;SDS011;57554;51.546;6.776;2023-05-07T03:30:28;29.98;;;20.45;;
70183;SDS011;57554;51.546;6.776;2023-05-07T03:32:54;24.17;;;18.15;;
70183;SDS011;57554;51.546;6.776;2023-05-07T03:35:23;31.15;;;20.25;;
70183;SDS011;57554;51.546;6.776;2023-05-07T03:37:50;30.83;;;18.95;;
70183;SDS011;57554;51.546;6.776;2023-05-07T03:40:36;29.83;;;20.98;;
70183;SDS011;57554;51.546;6.776;2023-05-07T03:43:05;25.60;;;18.42;;
70183;SDS011;57554;51.546;6.776;2023-05-07T03:45:31;29.65;;;19.38;;
70183;SDS011;57554;51.546;6.776;2023-05-07T03:47:58;26.23;;;18.85;;
70183;SDS011;57554;51.546;6.776;2023-05-07T03:50:26;26.38;;;19.38;;
70183;SDS011;57554;51.546;6.776;2023-05-07T03:52:55;29.38;;;20.77;;
70183;SDS011;57554;51.546;6.776;2023-05-07T03:55:27;28.27;;;19.77;;
70183;SDS011;57554;51.546;6.776;2023-05-07T03:57:55;28.25;;;19.83;;
70183;SDS011;57554;51.546;6.776;2023-05-07T04:00:21;28.13;;;19.65;;
70183;SDS011;57554;51.546;6.776;2023-05-07T04:02:47;27.02;;;18.23;;
70183;SDS011;57554;51.546;6.776;2023-05-07T04:05:16;34.10;;;23.10;;
70183;SDS011;57554;51.546;6.776;2023-05-07T04:07:42;26.60;;;19.25;;
70183;SDS011;57554;51.546;6.776;2023-05-07T04:10:08;27.42;;;19.30;;
70183;SDS011;57554;51.546;6.776;2023-05-07T04:12:35;33.08;;;21.02;;
70183;SDS011;57554;51.546;6.776;2023-05-07T04:15:01;30.75;;;21.10;;
70183;SDS011;57554;51.546;6.776;2023-05-07T04:17:27;27.30;;;19.35;;
70183;SDS011;57554;51.546;6.776;2023-05-07T04:20:01;27.67;;;18.80;;
70183;SDS011;57554;51.546;6.776;2023-05-07T04:22:34;29.08;;;19.90;;
70183;SDS011;57554;51.546;6.776;2023-05-07T04:24:59;30.45;;;21.55;;
70183;SDS011;57554;51.546;6.776;2023-05-07T04:27:28;35.10;;;23.95;;
70183;SDS011;57554;51.546;6.776;2023-05-07T04:29:57;31.42;;;21.25;;
70183;SDS011;57554;51.546;6.776;2023-05-07T04:32:23;30.02;;;20.25;;
70183;SDS011;57554;51.546;6.776;2023-05-07T04:34:50;34.22;;;22.42;;
70183;SDS011;57554;51.546;6.776;2023-05-07T04:37:18;29.90;;;20.90;;
70183;SDS011;57554;51.546;6.776;2023-05-07T04:39:44;29.92;;;19.50;;
70183;SDS011;57554;51.546;6.776;2023-05-07T04:42:19;29.80;;;19.52;;
70183;SDS011;57554;51.546;6.776;2023-05-07T04:44:45;37.03;;;21.08;;
70183;SDS011;57554;51.546;6.776;2023-05-07T04:47:14;36.75;;;22.90;;
70183;SDS011;57554;51.546;6.776;2023-05-07T04:49:40;31.92;;;21.23;;
70183;SDS011;57554;51.546;6.776;2023-05-07T04:52:09;36.50;;;23.42;;
70183;SDS011;57554;51.546;6.776;2023-05-07T04:54:35;34.15;;;21.52;;
70183;SDS011;57554;51.546;6.776;2023-05-07T04:57:00;37.33;;;23.15;;
70183;SDS011;57554;51.546;6.776;2023-05-07T04:59:29;31.30;;;20.75;;
70183;SDS011;57554;51.546;6.776;2023-05-07T05:02:02;30.60;;;20.50;;
70183;SDS011;57554;51.546;6.776;2023-05-07T05:04:29;29.73;;;20.10;;
70183;SDS011;57554;51.546;6.776;2023-05-07T05:06:57;31.92;;;20.70;;
70183;SDS011;57554;51.546;6.776;2023-05-07T05:09:26;29.40;;;20.08;;
70183;SDS011;57554;51.546;6.776;2023-05-07T05:11:54;25.85;;;18.38;;
70183;SDS011;57554;51.546;6.776;2023-05-07T05:14:27;29.23;;;19.67;;
70183;SDS011;57554;51.546;6.776;2023-05-07T05:17:01;31.08;;;20.80;;
70183;SDS011;57554;51.546;6.776;2023-05-07T05:19:26;28.58;;;19.58;;
70183;SDS011;57554;51.546;6.776;2023-05-07T05:24:28;30.25;;;19.65;;
70183;SDS011;57554;51.546;6.776;2023-05-07T05:27:03;31.63;;;20.65;;
70183;SDS011;57554;51.546;6.776;2023-05-07T05:29:32;30.25;;;20.65;;
70183;SDS011;57554;51.546;6.776;2023-05-07T05:31:58;31.17;;;21.92;;
70183;SDS011;57554;51.546;6.776;2023-05-07T05:34:29;31.23;;;18.75;;
70183;SDS011;57554;51.546;6.776;2023-05-07T05:37:09;32.35;;;21.67;;
70183;SDS011;57554;51.546;6.776;2023-05-07T05:40:00;29.83;;;19.73;;
70183;SDS011;57554;51.546;6.776;2023-05-07T05:42:32;30.15;;;19.65;;
70183;SDS011;57554;51.546;6.776;2023-05-07T05:45:00;28.13;;;17.92;;
70183;SDS011;57554;51.546;6.776;2023-05-07T05:47:44;29.73;;;19.10;;
70183;SDS011;57554;51.546;6.776;2023-05-07T05:50:12;25.98;;;17.98;;
70183;SDS011;57554;51.546;6.776;2023-05-07T05:52:38;27.33;;;18.63;;
70183;SDS011;57554;51.546;6.776;2023-05-07T05:55:07;29.58;;;19.35;;
70183;SDS011;57554;51.546;6.776;2023-05-07T05:57:38;25.50;;;17.58;;
70183;SDS011;57554;51.546;6.776;2023-05-07T06:00:13;26.17;;;16.73;;
70183;SDS011;57554;51.546;6.776;2023-05-07T06:02:47;22.50;;;15.80;;
70183;SDS011;57554;51.546;6.776;2023-05-07T06:05:33;21.92;;;15.27;;
70183;SDS011;57554;51.546;6.776;2023-05-07T06:08:12;24.60;;;15.23;;
70183;SDS011;57554;51.546;6.776;2023-05-07T06:10:43;25.63;;;15.40;;
70183;SDS011;57554;51.546;6.776;2023-05-07T06:13:12;24.65;;;15.95;;
70183;SDS011;57554;51.546;6.776;2023-05-07T06:15:40;22.08;;;14.85;;
70183;SDS011;57554;51.546;6.776;2023-05-07T06:18:09;19.15;;;13.70;;
70183;SDS011;57554;51.546;6.776;2023-05-07T06:20:40;18.63;;;13.30;;
70183;SDS011;57554;51.546;6.776;2023-05-07T06:23:19;19.90;;;13.13;;
70183;SDS011;57554;51.546;6.776;2023-05-07T06:25:48;19.30;;;13.18;;
70183;SDS011;57554;51.546;6.776;2023-05-07T06:28:16;19.17;;;12.13;;
70183;SDS011;57554;51.546;6.776;2023-05-07T06:30:45;21.05;;;13.27;;
70183;SDS011;57554;51.546;6.776;2023-05-07T06:33:13;17.75;;;10.77;;
70183;SDS011;57554;51.546;6.776;2023-05-07T06:35:39;18.58;;;13.05;;
70183;SDS011;57554;51.546;6.776;2023-05-07T06:38:05;18.15;;;12.27;;
70183;SDS011;57554;51.546;6.776;2023-05-07T06:40:30;20.95;;;13.27;;
70183;SDS011;57554;51.546;6.776;2023-05-07T06:42:56;17.40;;;12.73;;
70183;SDS011;57554;51.546;6.776;2023-05-07T06:45:28;17.75;;;12.07;;
70183;SDS011;57554;51.546;6.776;2023-05-07T06:47:54;17.92;;;10.77;;
70183;SDS011;57554;51.546;6.776;2023-05-07T06:50:25;16.00;;;10.50;;
70183;SDS011;57554;51.546;6.776;2023-05-07T06:52:51;15.90;;;9.93;;
70183;SDS011;57554;51.546;6.776;2023-05-07T06:55:17;15.95;;;9.95;;
70183;SDS011;57554;51.546;6.776;2023-05-07T06:57:44;13.68;;;9.32;;
70183;SDS011;57554;51.546;6.776;2023-05-07T07:00:13;14.73;;;8.73;;
70183;SDS011;57554;51.546;6.776;2023-05-07T07:02:45;13.65;;;9.07;;
70183;SDS011;57554;51.546;6.776;2023-05-07T07:05:19;11.25;;;7.72;;
70183;SDS011;57554;51.546;6.776;2023-05-07T07:07:48;12.52;;;8.13;;
70183;SDS011;57554;51.546;6.776;2023-05-07T07:10:20;13.65;;;7.90;;
70183;SDS011;57554;51.546;6.776;2023-05-07T07:12:47;12.38;;;7.80;;
70183;SDS011;57554;51.546;6.776;2023-05-07T07:15:13;13.75;;;7.78;;
70183;SDS011;57554;51.546;6.776;2023-05-07T07:17:41;11.15;;;7.25;;
70183;SDS011;57554;51.546;6.776;2023-05-07T07:20:18;15.05;;;6.80;;
70183;SDS011;57554;51.546;6.776;2023-05-07T07:22:43;9.60;;;6.40;;
70183;SDS011;57554;51.546;6.776;2023-05-07T07:25:09;10.48;;;6.20;;
70183;SDS011;57554;51.546;6.776;2023-05-07T07:27:38;9.88;;;6.55;;
70183;SDS011;57554;51.546;6.776;2023-05-07T07:33:46;9.60;;;5.45;;
70183;SDS011;57554;51.546;6.776;2023-05-07T07:36:15;9.48;;;5.88;;
70183;SDS011;57554;51.546;6.776;2023-05-07T07:38:41;10.05;;;5.75;;
70183;SDS011;57554;51.546;6.776;2023-05-07T07:41:10;7.75;;;4.68;;
70183;SDS011;57554;51.546;6.776;2023-05-07T07:43:47;10.65;;;5.57;;
70183;SDS011;57554;51.546;6.776;2023-05-07T07:46:24;9.23;;;4.75;;
70183;SDS011;57554;51.546;6.776;2023-05-07T07:49:01;8.55;;;5.07;;
70183;SDS011;57554;51.546;6.776;2023-05-07T07:51:36;10.80;;;5.35;;
70183;SDS011;57554;51.546;6.776;2023-05-07T07:54:04;10.48;;;5.15;;
70183;SDS011;57554;51.546;6.776;2023-05-07T07:56:33;8.65;;;4.30;;
70183;SDS011;57554;51.546;6.776;2023-05-07T07:59:06;10.07;;;5.13;;
70183;SDS011;57554;51.546;6.776;2023-05-07T08:01:38;7.70;;;4.25;;
70183;SDS011;57554;51.546;6.776;2023-05-07T08:04:04;9.88;;;4.00;;
70183;SDS011;57554;51.546;6.776;2023-05-07T08:06:33;8.82;;;4.10;;
70183;SDS011;57554;51.546;6.776;2023-05-07T08:08:59;6.65;;;3.63;;
70183;SDS011;57554;51.546;6.776;2023-05-07T08:11:28;7.72;;;3.30;;
70183;SDS011;57554;51.546;6.776;2023-05-07T08:13:54;9.15;;;3.78;;
70183;SDS011;57554;51.546;6.776;2023-05-07T08:16:21;7.25;;;3.72;;
70183;SDS011;57554;51.546;6.776;2023-05-07T08:19:05;7.78;;;3.92;;
70183;SDS011;57554;51.546;6.776;2023-05-07T08:21:37;6.95;;;3.55;;
70183;SDS011;57554;51.546;6.776;2023-05-07T08:24:05;9.43;;;3.65;;
70183;SDS011;57554;51.546;6.776;2023-05-07T08:26:34;6.38;;;3.13;;
70183;SDS011;57554;51.546;6.776;2023-05-07T08:29:01;7.18;;;3.45;;
70183;SDS011;57554;51.546;6.776;2023-05-07T08:31:26;8.57;;;3.33;;
70183;SDS011;57554;51.546;6.776;2023-05-07T08:33:55;5.25;;;3.17;;
70183;SDS011;57554;51.546;6.776;2023-05-07T08:36:22;6.97;;;3.33;;
70183;SDS011;57554;51.546;6.776;2023-05-07T08:38:51;6.22;;;3.13;;
70183;SDS011;57554;51.546;6.776;2023-05-07T08:41:17;5.60;;;2.97;;
70183;SDS011;57554;51.546;6.776;2023-05-07T08:43:47;7.03;;;2.67;;
70183;SDS011;57554;51.546;6.776;2023-05-07T08:46:20;6.13;;;2.88;;
70183;SDS011;57554;51.546;6.776;2023-05-07T08:48:49;5.55;;;2.70;;
70183;SDS011;57554;51.546;6.776;2023-05-07T08:51:18;6.50;;;2.88;;
70183;SDS011;57554;51.546;6.776;2023-05-07T08:53:47;6.40;;;3.25;;
70183;SDS011;57554;51.546;6.776;2023-05-07T08:56:16;7.25;;;3.17;;
70183;SDS011;57554;51.546;6.776;2023-05-07T08:58:48;5.05;;;2.58;;
70183;SDS011;57554;51.546;6.776;2023-05-07T09:01:14;9.90;;;3.30;;
70183;SDS011;57554;51.546;6.776;2023-05-07T09:03:42;8.00;;;3.40;;
70183;SDS011;57554;51.546;6.776;2023-05-07T09:06:10;6.30;;;2.92;;
70183;SDS011;57554;51.546;6.776;2023-05-07T09:08:50;6.13;;;3.13;;
70183;SDS011;57554;51.546;6.776;2023-05-07T09:11:26;6.60;;;3.45;;
70183;SDS011;57554;51.546;6.776;2023-05-07T09:20:44;5.88;;;2.90;;
70183;SDS011;57554;51.546;6.776;2023-05-07T09:23:16;9.75;;;3.50;;
70183;SDS011;57554;51.546;6.776;2023-05-07T09:25:59;6.53;;;3.45;;
70183;SDS011;57554;51.546;6.776;2023-05-07T09:28:43;8.13;;;3.15;;
70183;SDS011;57554;51.546;6.776;2023-05-07T09:31:11;7.50;;;3.38;;
70183;SDS011;57554;51.546;6.776;2023-05-07T09:33:58;6.60;;;3.10;;
70183;SDS011;57554;51.546;6.776;2023-05-07T09:36:23;7.90;;;3.20;;
70183;SDS011;57554;51.546;6.776;2023-05-07T09:38:49;7.97;;;3.67;;
70183;SDS011;57554;51.546;6.776;2023-05-07T09:41:17;7.60;;;3.50;;
70183;SDS011;57554;51.546;6.776;2023-05-07T09:53:57;6.63;;;3.55;;
70183;SDS011;57554;51.546;6.776;2023-05-07T09:56:27;6.07;;;3.60;;
70183;SDS011;57554;51.546;6.776;2023-05-07T09:58:57;7.22;;;3.58;;
70183;SDS011;57554;51.546;6.776;2023-05-07T10:12:45;5.40;;;3.03;;
70183;SDS011;57554;51.546;6.776;2023-05-07T10:15:15;5.78;;;2.90;;
70183;SDS011;57554;51.546;6.776;2023-05-07T10:20:54;7.25;;;3.53;;
70183;SDS011;57554;51.546;6.776;2023-05-07T10:23:23;8.40;;;3.25;;
70183;SDS011;57554;51.546;6.776;2023-05-07T10:25:49;4.90;;;2.50;;
70183;SDS011;57554;51.546;6.776;2023-05-07T10:28:19;5.18;;;2.42;;
70183;SDS011;57554;51.546;6.776;2023-05-07T10:31:02;6.55;;;3.03;;
70183;SDS011;57554;51.546;6.776;2023-05-07T10:33:48;6.18;;;2.80;;
70183;SDS011;57554;51.546;6.776;2023-05-07T10:36:22;4.65;;;2.40;;
70183;SDS011;57554;51.546;6.776;2023-05-07T10:38:54;5.50;;;2.70;;
70183;SDS011;57554;51.546;6.776;2023-05-07T10:41:23;5.60;;;3.10;;
70183;SDS011;57554;51.546;6.776;2023-05-07T10:43:49;6.10;;;2.88;;
70183;SDS011;57554;51.546;6.776;2023-05-07T10:46:29;5.28;;;2.50;;
70183;SDS011;57554;51.546;6.776;2023-05-07T10:51:40;5.50;;;2.30;;
70183;SDS011;57554;51.546;6.776;2023-05-07T10:54:18;4.75;;;2.20;;
70183;SDS011;57554;51.546;6.776;2023-05-07T10:56:44;4.88;;;2.25;;
70183;SDS011;57554;51.546;6.776;2023-05-07T11:04:29;7.07;;;2.35;;
70183;SDS011;57554;51.546;6.776;2023-05-07T11:16:25;4.90;;;2.03;;
70183;SDS011;57554;51.546;6.776;2023-05-07T11:18:55;4.95;;;1.60;;
70183;SDS011;57554;51.546;6.776;2023-05-07T11:27:27;7.07;;;1.70;;
70183;SDS011;57554;51.546;6.776;2023-05-07T11:30:03;3.97;;;1.70;;
70183;SDS011;57554;51.546;6.776;2023-05-07T11:32:32;4.35;;;1.70;;
70183;SDS011;57554;51.546;6.776;2023-05-07T11:38:20;6.60;;;1.88;;
70183;SDS011;57554;51.546;6.776;2023-05-07T11:40:53;6.65;;;2.15;;
70183;SDS011;57554;51.546;6.776;2023-05-07T11:44:00;5.22;;;2.08;;
70183;SDS011;57554;51.546;6.776;2023-05-07T11:50:33;7.15;;;2.47;;
70183;SDS011;57554;51.546;6.776;2023-05-07T11:53:11;6.00;;;2.08;;
70183;SDS011;57554;51.546;6.776;2023-05-07T11:59:19;5.60;;;2.20;;
70183;SDS011;57554;51.546;6.776;2023-05-07T12:01:46;4.38;;;2.00;;
70183;SDS011;57554;51.546;6.776;2023-05-07T12:10:54;6.32;;;2.85;;
70183;SDS011;57554;51.546;6.776;2023-05-07T12:16:48;5.10;;;2.28;;
70183;SDS011;57554;51.546;6.776;2023-05-07T12:22:38;7.07;;;2.42;;
70183;SDS011;57554;51.546;6.776;2023-05-07T12:25:15;6.53;;;2.40;;
70183;SDS011;57554;51.546;6.776;2023-05-07T12:27:51;6.55;;;2.47;;
70183;SDS011;57554;51.546;6.776;2023-05-07T12:30:18;6.28;;;2.22;;
70183;SDS011;57554;51.546;6.776;2023-05-07T12:32:44;5.00;;;2.00;;
70183;SDS011;57554;51.546;6.776;2023-05-07T12:38:55;5.65;;;2.10;;
70183;SDS011;57554;51.546;6.776;2023-05-07T12:41:30;4.88;;;2.03;;
70183;SDS011;57554;51.546;6.776;2023-05-07T12:51:28;5.35;;;2.70;;
70183;SDS011;57554;51.546;6.776;2023-05-07T12:53:57;7.75;;;2.40;;
70183;SDS011;57554;51.546;6.776;2023-05-07T12:56:32;6.85;;;2.80;;
70183;SDS011;57554;51.546;6.776;2023-05-07T12:59:15;5.97;;;2.80;;
70183;SDS011;57554;51.546;6.776;2023-05-07T13:01:41;7.95;;;2.90;;
70183;SDS011;57554;51.546;6.776;2023-05-07T13:06:38;7.10;;;2.97;;
70183;SDS011;57554;51.546;6.776;2023-05-07T13:09:19;7.93;;;3.42;;
70183;SDS011;57554;51.546;6.776;2023-05-07T13:11:44;5.80;;;2.85;;
70183;SDS011;57554;51.546;6.776;2023-05-07T13:14:13;6.50;;;3.10;;
70183;SDS011;57554;51.546;6.776;2023-05-07T13:16:39;8.75;;;3.50;;
70183;SDS011;57554;51.546;6.776;2023-05-07T13:22:29;6.70;;;3.38;;
70183;SDS011;57554;51.546;6.776;2023-05-07T13:24:58;5.88;;;2.72;;
70183;SDS011;57554;51.546;6.776;2023-05-07T13:27:26;8.10;;;3.38;;
70183;SDS011;57554;51.546;6.776;2023-05-07T13:33:20;7.55;;;3.00;;
70183;SDS011;57554;51.546;6.776;2023-05-07T13:35:46;9.00;;;3.85;;
70183;SDS011;57554;51.546;6.776;2023-05-07T13:38:12;8.52;;;3.80;;
70183;SDS011;57554;51.546;6.776;2023-05-07T13:44:04;8.98;;;4.70;;
70183;SDS011;57554;51.546;6.776;2023-05-07T13:46:29;7.97;;;4.43;;
70183;SDS011;57554;51.546;6.776;2023-05-07T13:52:39;10.73;;;5.25;;
70183;SDS011;57554;51.546;6.776;2023-05-07T13:55:08;11.20;;;5.22;;
70183;SDS011;57554;51.546;6.776;2023-05-07T13:57:57;10.05;;;5.32;;
70183;SDS011;57554;51.546;6.776;2023-05-07T14:00:25;7.68;;;4.95;;
70183;SDS011;57554;51.546;6.776;2023-05-07T14:03:28;11.63;;;5.35;;
70183;SDS011;57554;51.546;6.776;2023-05-07T14:06:16;9.80;;;5.43;;
70183;SDS011;57554;51.546;6.776;2023-05-07T14:08:44;10.85;;;5.18;;
70183;SDS011;57554;51.546;6.776;2023-05-07T14:11:32;10.20;;;5.60;;
70183;SDS011;57554;51.546;6.776;2023-05-07T14:14:01;10.10;;;6.22;;
70183;SDS011;57554;51.546;6.776;2023-05-07T14:16:30;10.35;;;6.75;;
70183;SDS011;57554;51.546;6.776;2023-05-07T14:18:56;10.25;;;6.43;;
70183;SDS011;57554;51.546;6.776;2023-05-07T14:21:26;11.82;;;6.80;;
70183;SDS011;57554;51.546;6.776;2023-05-07T14:23:55;10.23;;;6.00;;
70183;SDS011;57554;51.546;6.776;2023-05-07T14:26:24;11.18;;;5.93;;
70183;SDS011;57554;51.546;6.776;2023-05-07T14:28:54;13.70;;;7.65;;
70183;SDS011;57554;51.546;6.776;2023-05-07T14:31:23;27.55;;;9.27;;
70183;SDS011;57554;51.546;6.776;2023-05-07T14:33:50;20.27;;;8.80;;
70183;SDS011;57554;51.546;6.776;2023-05-07T14:36:17;19.85;;;8.23;;
70183;SDS011;57554;51.546;6.776;2023-05-07T14:38:52;25.17;;;8.95;;
70183;SDS011;57554;51.546;6.776;2023-05-07T14:41:24;15.98;;;7.93;;
70183;SDS011;57554;51.546;6.776;2023-05-07T14:44:00;12.63;;;7.70;;
70183;SDS011;57554;51.546;6.776;2023-05-07T14:46:41;19.58;;;8.60;;
70183;SDS011;57554;51.546;6.776;2023-05-07T14:49:07;15.90;;;8.65;;
70183;SDS011;57554;51.546;6.776;2023-05-07T14:51:45;17.38;;;8.75;;
70183;SDS011;57554;51.546;6.776;2023-05-07T14:54:22;13.18;;;8.70;;
70183;SDS011;57554;51.546;6.776;2023-05-07T14:57:02;14.93;;;8.32;;
70183;SDS011;57554;51.546;6.776;2023-05-07T14:59:30;13.60;;;8.75;;
70183;SDS011;57554;51.546;6.776;2023-05-07T15:01:55;15.60;;;9.45;;
70183;SDS011;57554;51.546;6.776;2023-05-07T15:04:25;13.20;;;9.35;;
70183;SDS011;57554;51.546;6.776;2023-05-07T15:06:50;15.13;;;9.15;;
70183;SDS011;57554;51.546;6.776;2023-05-07T15:09:18;12.75;;;8.77;;
70183;SDS011;57554;51.546;6.776;2023-05-07T15:11:50;12.93;;;9.25;;
70183;SDS011;57554;51.546;6.776;2023-05-07T15:14:16;15.88;;;9.98;;
70183;SDS011;57554;51.546;6.776;2023-05-07T15:16:42;15.50;;;10.60;;
70183;SDS011;57554;51.546;6.776;2023-05-07T15:19:07;14.75;;;9.73;;
70183;SDS011;57554;51.546;6.776;2023-05-07T15:24:57;14.23;;;9.20;;
70183;SDS011;57554;51.546;6.776;2023-05-07T15:27:23;15.45;;;11.60;;
70183;SDS011;57554;51.546;6.776;2023-05-07T15:29:52;16.38;;;9.88;;
70183;SDS011;57554;51.546;6.776;2023-05-07T15:32:17;16.50;;;10.05;;
70183;SDS011;57554;51.546;6.776;2023-05-07T15:34:43;16.23;;;10.35;;
70183;SDS011;57554;51.546;6.776;2023-05-07T15:37:11;16.50;;;10.40;;
70183;SDS011;57554;51.546;6.776;2023-05-07T15:43:43;15.20;;;9.23;;
70183;SDS011;57554;51.546;6.776;2023-05-07T15:46:18;15.95;;;10.55;;
70183;SDS011;57554;51.546;6.776;2023-05-07T15:48:45;15.57;;;10.52;;
70183;SDS011;57554;51.546;6.776;2023-05-07T15:51:11;27.95;;;10.32;;
70183;SDS011;57554;51.546;6.776;2023-05-07T15:53:40;16.02;;;10.02;;
70183;SDS011;57554;51.546;6.776;2023-05-07T15:56:06;15.27;;;10.75;;
70183;SDS011;57554;51.546;6.776;2023-05-07T15:58:31;15.50;;;10.30;;
70183;SDS011;57554;51.546;6.776;2023-05-07T16:01:00;16.30;;;11.45;;
70183;SDS011;57554;51.546;6.776;2023-05-07T16:03:27;16.60;;;10.93;;
70183;SDS011;57554;51.546;6.776;2023-05-07T16:05:53;15.75;;;10.80;;
70183;SDS011;57554;51.546;6.776;2023-05-07T16:08:21;17.27;;;10.30;;
70183;SDS011;57554;51.546;6.776;2023-05-07T16:10:48;14.95;;;9.20;;
70183;SDS011;57554;51.546;6.776;2023-05-07T16:13:14;12.50;;;8.73;;
70183;SDS011;57554;51.546;6.776;2023-05-07T16:19:04;13.88;;;9.18;;
70183;SDS011;57554;51.546;6.776;2023-05-07T16:21:30;12.95;;;9.45;;
70183;SDS011;57554;51.546;6.776;2023-05-07T16:23:56;13.23;;;8.80;;
70183;SDS011;57554;51.546;6.776;2023-05-07T16:26:25;13.90;;;9.27;;
70183;SDS011;57554;51.546;6.776;2023-05-07T16:28:51;12.45;;;8.98;;
70183;SDS011;57554;51.546;6.776;2023-05-07T16:31:17;15.88;;;9.90;;
70183;SDS011;57554;51.546;6.776;2023-05-07T16:33:47;14.60;;;9.75;;
70183;SDS011;57554;51.546;6.776;2023-05-07T16:36:13;12.10;;;8.50;;
70183;SDS011;57554;51.546;6.776;2023-05-07T16:38:39;12.52;;;8.52;;
70183;SDS011;57554;51.546;6.776;2023-05-07T16:41:05;12.75;;;8.90;;
70183;SDS011;57554;51.546;6.776;2023-05-07T16:43:30;13.10;;;9.60;;
70183;SDS011;57554;51.546;6.776;2023-05-07T16:45:56;15.07;;;9.70;;
70183;SDS011;57554;51.546;6.776;2023-05-07T16:48:22;14.30;;;9.02;;
70183;SDS011;57554;51.546;6.776;2023-05-07T16:50:47;14.57;;;9.98;;
70183;SDS011;57554;51.546;6.776;2023-05-07T16:53:16;13.13;;;9.20;;
70183;SDS011;57554;51.546;6.776;2023-05-07T16:55:42;15.27;;;10.00;;